createdAt,value
2022-09-07T00:01:14.646Z,13.06
2022-09-07T00:03:41.563Z,13.03
2022-09-07T00:06:10.603Z,13.01
2022-09-07T00:08:38.354Z,12.97
2022-09-07T00:11:10.769Z,12.94
2022-09-07T00:13:41.192Z,12.93
2022-09-07T00:16:13.294Z,12.92
2022-09-07T00:18:45.604Z,12.91
2022-09-07T00:21:14.727Z,12.85
2022-09-07T00:23:41.895Z,12.83
2022-09-07T00:26:10.353Z,12.79
2022-09-07T00:28:38.517Z,12.76
2022-09-07T00:31:12.551Z,12.67
2022-09-07T00:33:40.146Z,12.62
2022-09-07T00:36:07.339Z,12.59
2022-09-07T00:38:35.207Z,12.58
2022-09-07T00:41:02.081Z,12.53
2022-09-07T00:43:39.664Z,12.51
2022-09-07T00:46:12.410Z,12.50
2022-09-07T00:49:08.219Z,12.50
2022-09-07T00:51:37.701Z,12.49
2022-09-07T00:54:10.786Z,12.47
2022-09-07T00:56:41.923Z,12.46
2022-09-07T00:59:11.230Z,12.43
2022-09-07T01:01:41.295Z,12.38
2022-09-07T01:04:09.320Z,12.33
2022-09-07T01:06:38.361Z,12.27
2022-09-07T01:09:15.924Z,12.22
2022-09-07T01:11:51.141Z,12.19
2022-09-07T01:14:33.802Z,12.16
2022-09-07T01:17:15.526Z,12.14
2022-09-07T01:20:00.533Z,12.11
2022-09-07T01:22:52.386Z,12.07
2022-09-07T01:25:44.326Z,12.02
2022-09-07T01:28:27.920Z,11.98
2022-09-07T01:31:07.181Z,11.94
2022-09-07T01:33:43.516Z,11.91
2022-09-07T01:36:10.246Z,11.89
2022-09-07T01:38:53.312Z,11.86
2022-09-07T01:41:47.348Z,11.82
2022-09-07T01:44:16.950Z,11.77
2022-09-07T01:46:53.670Z,11.72
2022-09-07T01:49:33.895Z,11.69
2022-09-07T01:52:13.160Z,11.64
2022-09-07T01:54:46.174Z,11.60
2022-09-07T01:57:19.306Z,11.57
2022-09-07T01:59:55.875Z,11.53
2022-09-07T02:02:31.334Z,11.49
2022-09-07T02:05:45.405Z,11.47
2022-09-07T02:08:17.978Z,11.41
2022-09-07T02:10:56.556Z,11.38
2022-09-07T02:13:31.830Z,11.34
2022-09-07T02:16:27.084Z,11.33
2022-09-07T02:18:57.332Z,11.31
2022-09-07T02:21:34.216Z,11.27
2022-09-07T02:24:06.462Z,11.23
2022-09-07T02:26:36.880Z,11.19
2022-09-07T02:29:03.917Z,11.17
2022-09-07T02:31:31.473Z,11.14
2022-09-07T02:33:58.917Z,11.09
2022-09-07T02:36:31.020Z,11.08
2022-09-07T02:38:58.057Z,11.06
2022-09-07T02:41:38.782Z,11.04
2022-09-07T02:44:28.955Z,11.01
2022-09-07T02:47:21.130Z,10.96
2022-09-07T02:50:06.212Z,10.93
2022-09-07T02:53:09.600Z,10.88
2022-09-07T02:56:07.800Z,10.83
2022-09-07T02:58:50.110Z,10.78
2022-09-07T03:01:19.607Z,10.75
2022-09-07T03:04:10.964Z,10.72
2022-09-07T03:06:43.847Z,10.68
2022-09-07T03:09:16.622Z,10.65
2022-09-07T03:11:43.705Z,10.64
2022-09-07T03:14:16.842Z,10.64
2022-09-07T03:16:46.387Z,10.62
2022-09-07T03:19:13.059Z,10.59
2022-09-07T03:21:39.758Z,10.58
2022-09-07T03:24:07.038Z,10.56
2022-09-07T03:26:36.451Z,10.54
2022-09-07T03:29:03.818Z,10.53
2022-09-07T03:31:35.680Z,10.50
2022-09-07T03:34:04.673Z,10.48
2022-09-07T03:36:32.617Z,10.47
2022-09-07T03:38:59.896Z,10.43
2022-09-07T03:41:27.330Z,10.41
2022-09-07T03:43:54.375Z,10.39
2022-09-07T03:46:21.587Z,10.38
2022-09-07T03:48:49.464Z,10.37
2022-09-07T03:51:18.787Z,10.35
2022-09-07T03:53:47.472Z,10.35
2022-09-07T03:56:22.531Z,10.32
2022-09-07T03:58:50.396Z,10.30
2022-09-07T04:01:20.624Z,10.27
2022-09-07T04:03:48.329Z,10.24
2022-09-07T04:06:16.315Z,10.19
2022-09-07T04:08:43.706Z,10.17
2022-09-07T04:11:14.163Z,10.16
2022-09-07T04:13:41.670Z,10.12
2022-09-07T04:16:18.786Z,10.09
2022-09-07T04:18:45.858Z,10.05
2022-09-07T04:21:13.324Z,10.02
2022-09-07T04:23:41.408Z,10.01
2022-09-07T04:26:14.278Z,10.00
2022-09-07T04:28:41.107Z,9.98
2022-09-07T04:31:08.171Z,9.95
2022-09-07T04:33:34.958Z,9.93
2022-09-07T04:36:02.294Z,9.93
2022-09-07T04:38:29.772Z,9.92
2022-09-07T04:41:09.800Z,9.92
2022-09-07T04:43:37.101Z,9.90
2022-09-07T04:46:05.086Z,9.86
2022-09-07T04:48:32.280Z,9.88
2022-09-07T04:51:10.136Z,9.92
2022-09-07T04:53:38.116Z,9.95
2022-09-07T04:56:05.446Z,9.97
2022-09-07T04:58:33.524Z,10.01
2022-09-07T05:01:06.707Z,10.05
2022-09-07T05:03:37.201Z,10.08
2022-09-07T05:06:05.359Z,10.11
2022-09-07T05:08:43.319Z,10.14
2022-09-07T05:11:11.898Z,10.19
2022-09-07T05:13:38.903Z,10.21
2022-09-07T05:16:14.476Z,10.24
2022-09-07T05:18:41.534Z,10.25
2022-09-07T05:21:18.105Z,10.28
2022-09-07T05:23:45.092Z,10.31
2022-09-07T05:26:12.316Z,10.37
2022-09-07T05:28:39.712Z,10.42
2022-09-07T05:36:36.073Z,10.59
2022-09-07T05:39:03.816Z,10.60
2022-09-07T05:41:30.542Z,10.64
2022-09-07T05:46:44.051Z,10.74
2022-09-07T05:49:10.919Z,10.75
2022-09-07T05:51:38.096Z,10.76
2022-09-07T05:54:05.475Z,10.80
2022-09-07T05:56:35.246Z,10.82
2022-09-07T05:59:01.964Z,10.88
2022-09-07T06:01:28.713Z,10.94
2022-09-07T06:03:55.387Z,11.00
2022-09-07T06:06:22.330Z,11.06
2022-09-07T06:08:51.351Z,11.12
2022-09-07T06:11:23.173Z,11.17
2022-09-07T06:13:50.214Z,11.23
2022-09-07T06:16:18.507Z,11.25
2022-09-07T06:18:47.350Z,11.25
2022-09-07T06:21:18.557Z,11.20
2022-09-07T06:23:46.483Z,11.18
2022-09-07T06:26:15.053Z,11.20
2022-09-07T06:28:49.478Z,11.23
2022-09-07T06:31:23.378Z,11.36
2022-09-07T06:33:51.635Z,11.46
2022-09-07T06:36:20.682Z,11.59
2022-09-07T06:38:48.716Z,11.72
2022-09-07T06:44:08.430Z,11.96
2022-09-07T06:49:21.848Z,12.03
2022-09-07T06:51:48.774Z,11.99
2022-09-07T06:57:09.531Z,12.05
2022-09-07T06:59:37.102Z,12.15
2022-09-07T07:02:04.917Z,12.30
2022-09-07T07:04:34.109Z,12.43
2022-09-07T07:07:04.287Z,12.55
2022-09-07T07:09:31.028Z,12.65
2022-09-07T07:11:57.729Z,12.78
2022-09-07T07:14:24.412Z,12.93
2022-09-07T07:16:51.819Z,13.08
2022-09-07T07:19:19.338Z,13.22
2022-09-07T07:22:10.851Z,13.36
2022-09-07T07:24:32.806Z,13.49
2022-09-07T07:26:59.463Z,13.60
2022-09-07T07:29:28.269Z,13.71
2022-09-07T07:31:55.605Z,13.80
2022-09-07T07:34:22.408Z,13.89
2022-09-07T07:36:49.287Z,13.92
2022-09-07T07:42:03.404Z,14.12
2022-09-07T07:44:32.189Z,14.25
2022-09-07T07:46:58.894Z,14.40
2022-09-07T07:49:25.955Z,14.61
2022-09-07T07:54:43.361Z,15.19
2022-09-07T07:57:10.926Z,15.50
2022-09-07T07:59:38.657Z,15.94
2022-09-07T08:02:07.387Z,16.55
2022-09-07T08:04:34.858Z,17.20
2022-09-07T08:07:08.318Z,17.92
2022-09-07T08:09:37.421Z,18.77
2022-09-07T08:12:04.199Z,19.72
2022-09-07T08:14:30.955Z,20.79
2022-09-07T08:16:57.692Z,21.93
2022-09-07T08:19:24.293Z,23.05
2022-09-07T08:21:51.206Z,24.15
2022-09-07T08:24:17.878Z,25.14
2022-09-07T08:26:44.907Z,26.02
2022-09-07T08:29:11.952Z,26.81
2022-09-07T08:31:38.642Z,27.40
2022-09-07T08:34:06.555Z,27.73
2022-09-07T08:36:34.380Z,28.00
2022-09-07T08:39:01.071Z,28.43
2022-09-07T08:41:42.715Z,28.96
2022-09-07T08:44:24.339Z,29.79
2022-09-07T08:47:19.957Z,30.60
2022-09-07T08:50:04.242Z,31.37
2022-09-07T08:52:50.928Z,31.88
2022-09-07T08:55:31.865Z,32.27
2022-09-07T08:58:27.098Z,32.64
2022-09-07T09:06:52.742Z,34.24
2022-09-07T09:09:20.043Z,34.60
2022-09-07T09:11:58.717Z,35.00
2022-09-07T09:14:53.860Z,35.26
2022-09-07T09:17:44.723Z,35.87
2022-09-07T09:20:33.034Z,35.96
2022-09-07T09:23:12.480Z,36.21
2022-09-07T09:25:47.045Z,36.36
2022-09-07T09:28:13.769Z,36.67
2022-09-07T09:30:40.428Z,36.77
2022-09-07T09:33:22.870Z,36.81
2022-09-07T09:35:52.664Z,37.00
2022-09-07T09:38:29.689Z,37.28
2022-09-07T09:40:59.062Z,37.54
2022-09-07T09:43:30.649Z,37.83
2022-09-07T09:46:13.903Z,38.19
2022-09-07T09:48:41.754Z,38.33
2022-09-07T09:53:59.139Z,38.76
2022-09-07T09:56:43.397Z,38.99
2022-09-07T10:05:29.474Z,39.55
2022-09-07T10:07:56.998Z,39.76
2022-09-07T10:10:24.993Z,39.94
2022-09-07T10:12:53.095Z,40.05
2022-09-07T10:15:41.410Z,40.40
2022-09-07T10:18:18.766Z,40.61
2022-09-07T10:20:45.589Z,40.63
2022-09-07T10:23:23.867Z,40.54
2022-09-07T10:25:51.230Z,40.39
2022-09-07T10:28:24.189Z,40.18
2022-09-07T10:31:15.283Z,40.40
2022-09-07T10:37:03.480Z,39.01
2022-09-07T10:39:43.414Z,38.55
2022-09-07T10:42:25.020Z,38.36
2022-09-07T10:45:25.117Z,38.53
2022-09-07T10:48:19.898Z,38.76
2022-09-07T10:51:46.160Z,38.72
2022-09-07T10:54:58.332Z,38.49
2022-09-07T10:57:48.746Z,38.93
2022-09-07T11:00:19.201Z,39.55
2022-09-07T11:03:29.300Z,39.84
2022-09-07T11:06:32.198Z,39.99
2022-09-07T11:09:39.354Z,39.80
2022-09-07T11:12:17.672Z,39.33
2022-09-07T11:14:57.517Z,38.96
2022-09-07T11:17:29.088Z,38.95
2022-09-07T11:20:13.130Z,39.40
2022-09-07T11:22:50.356Z,39.64
2022-09-07T11:25:52.295Z,40.07
2022-09-07T11:28:39.979Z,39.83
2022-09-07T11:31:21.288Z,39.32
2022-09-07T11:36:47.114Z,38.93
2022-09-07T11:39:23.284Z,38.97
2022-09-07T11:42:00.819Z,39.28
2022-09-07T11:44:42.296Z,39.08
2022-09-07T11:47:18.057Z,39.36
2022-09-07T11:49:50.850Z,39.51
2022-09-07T11:52:26.178Z,39.52
2022-09-07T11:54:58.944Z,39.80
2022-09-07T11:57:54.911Z,40.28
2022-09-07T12:00:50.777Z,40.88
2022-09-07T12:03:40.778Z,41.12
2022-09-07T12:06:23.791Z,41.11
2022-09-07T12:09:41.664Z,41.26
2022-09-07T12:12:27.717Z,40.99
2022-09-07T12:15:25.327Z,40.84
2022-09-07T12:18:24.720Z,40.70
2022-09-07T12:20:52.834Z,40.36
2022-09-07T12:23:27.559Z,39.88
2022-09-07T12:26:35.243Z,39.53
2022-09-07T12:29:02.650Z,39.27
2022-09-07T12:31:57.738Z,39.30
2022-09-07T12:34:32.515Z,38.82
2022-09-07T12:37:02.956Z,38.57
2022-09-07T12:39:35.102Z,38.66
2022-09-07T12:45:28.662Z,39.34
2022-09-07T12:48:04.531Z,39.43
2022-09-07T12:50:40.232Z,39.46
2022-09-07T12:53:17.701Z,39.94
2022-09-07T12:56:16.037Z,40.02
2022-09-07T12:59:01.756Z,40.07
2022-09-07T13:01:57.147Z,39.91
2022-09-07T13:04:41.833Z,39.80
2022-09-07T13:08:07.966Z,39.87
2022-09-07T13:10:39.590Z,40.10
2022-09-07T13:13:14.915Z,40.12
2022-09-07T13:16:13.947Z,40.12
2022-09-07T13:18:43.809Z,40.04
2022-09-07T13:21:11.970Z,39.78
2022-09-07T13:23:45.457Z,39.45
2022-09-07T13:26:33.473Z,39.24
2022-09-07T13:29:04.405Z,39.21
2022-09-07T13:31:52.944Z,39.17
2022-09-07T13:34:35.115Z,39.41
2022-09-07T13:37:06.093Z,39.73
2022-09-07T13:39:42.013Z,39.93
2022-09-07T13:42:17.200Z,40.19
2022-09-07T13:44:53.599Z,40.31
2022-09-07T13:47:29.835Z,40.39
2022-09-07T13:50:21.633Z,40.36
2022-09-07T13:53:16.200Z,39.74
2022-09-07T13:55:59.633Z,38.15
2022-09-07T13:58:35.253Z,36.29
2022-09-07T14:01:14.832Z,34.98
2022-09-07T14:03:44.236Z,33.85
2022-09-07T14:06:22.983Z,33.32
2022-09-07T14:09:01.932Z,33.60
2022-09-07T14:11:49.849Z,34.23
2022-09-07T14:14:16.509Z,34.68
2022-09-07T14:16:49.453Z,34.75
2022-09-07T14:19:25.564Z,34.61
2022-09-07T14:22:05.004Z,34.36
2022-09-07T14:24:41.458Z,33.74
2022-09-07T14:27:23.778Z,33.17
2022-09-07T14:29:51.159Z,32.70
2022-09-07T14:32:23.625Z,32.36
2022-09-07T14:34:51.147Z,32.21
2022-09-07T14:37:21.307Z,32.09
2022-09-07T14:39:50.912Z,31.90
2022-09-07T14:42:23.086Z,31.47
2022-09-07T14:44:50.518Z,31.04
2022-09-07T14:47:34.961Z,30.66
2022-09-07T14:50:06.317Z,30.29
2022-09-07T14:53:33.200Z,29.85
2022-09-07T14:55:29.471Z,29.33
2022-09-07T14:58:20.314Z,28.95
2022-09-07T15:03:58.522Z,27.90
2022-09-07T15:09:35.820Z,27.04
2022-09-07T15:12:36.078Z,26.66
2022-09-07T15:15:32.718Z,26.24
2022-09-07T15:18:08.823Z,25.88
2022-09-07T15:20:45.549Z,25.43
2022-09-07T15:23:15.016Z,25.04
2022-09-07T15:25:49.803Z,24.69
2022-09-07T15:34:10.096Z,23.87
2022-09-07T15:36:40.361Z,23.73
2022-09-07T15:39:08.252Z,23.54
2022-09-07T15:41:34.965Z,23.34
2022-09-07T15:44:02.201Z,23.18
2022-09-07T15:46:29.011Z,23.08
2022-09-07T15:48:56.095Z,22.98
2022-09-07T15:54:13.106Z,22.88
2022-09-07T15:56:42.390Z,22.78
2022-09-07T15:59:12.129Z,22.75
2022-09-07T16:01:56.019Z,22.67
2022-09-07T16:04:24.182Z,22.57
2022-09-07T16:06:50.990Z,22.51
2022-09-07T16:09:21.521Z,22.47
2022-09-07T16:11:50.036Z,22.40
2022-09-07T16:14:17.818Z,22.35
2022-09-07T16:19:35.026Z,22.15
2022-09-07T16:22:03.267Z,22.11
2022-09-07T16:24:30.437Z,22.09
2022-09-07T16:26:57.204Z,22.09
2022-09-07T16:29:24.558Z,22.07
2022-09-07T16:34:39.982Z,21.96
2022-09-07T16:37:07.355Z,21.91
2022-09-07T16:39:34.465Z,21.87
2022-09-07T16:42:01.388Z,21.81
2022-09-07T16:44:28.113Z,21.75
2022-09-07T16:46:55.102Z,21.68
2022-09-07T16:49:22.118Z,21.60
2022-09-07T16:51:49.874Z,21.55
2022-09-07T16:54:17.530Z,21.43
2022-09-07T16:56:44.274Z,21.31
2022-09-07T16:59:16.639Z,21.19
2022-09-07T17:01:43.314Z,21.10
2022-09-07T17:04:11.413Z,20.97
2022-09-07T17:06:39.656Z,20.89
2022-09-07T17:09:06.828Z,20.81
2022-09-07T17:11:35.934Z,20.74
2022-09-07T17:14:05.442Z,20.68
2022-09-07T17:16:38.385Z,20.60
2022-09-07T17:21:55.402Z,20.47
2022-09-07T17:24:24.120Z,20.39
2022-09-07T17:26:51.101Z,20.32
2022-09-07T17:29:18.233Z,20.24
2022-09-07T17:34:31.648Z,20.16
2022-09-07T17:37:00.577Z,20.13
2022-09-07T17:39:27.700Z,20.03
2022-09-07T17:41:54.832Z,19.94
2022-09-07T17:44:23.515Z,19.87
2022-09-07T17:46:50.580Z,19.81
2022-09-07T17:49:17.907Z,19.81
2022-09-07T17:51:45.570Z,19.81
2022-09-07T17:54:15.050Z,19.80
2022-09-07T17:56:43.022Z,19.79
2022-09-07T18:01:57.268Z,19.74
2022-09-07T18:04:24.342Z,19.73
2022-09-07T18:06:51.067Z,19.69
2022-09-07T18:09:17.728Z,19.65
2022-09-07T18:11:46.278Z,19.62
2022-09-07T18:14:14.897Z,19.59
2022-09-07T18:16:43.848Z,19.56
2022-09-07T18:19:11.399Z,19.54
2022-09-07T18:21:39.343Z,19.52
2022-09-07T18:24:13.581Z,19.49
2022-09-07T18:26:40.907Z,19.47
2022-09-07T18:29:26.036Z,19.44
2022-09-07T18:31:54.864Z,19.38
2022-09-07T18:34:21.752Z,19.33
2022-09-07T18:36:48.364Z,19.30
2022-09-07T18:39:15.296Z,19.28
2022-09-07T18:41:42.274Z,19.25
2022-09-07T18:46:56.303Z,19.08
2022-09-07T18:49:23.569Z,19.05
2022-09-07T18:54:38.258Z,18.97
2022-09-07T18:57:06.731Z,18.93
2022-09-07T18:59:33.598Z,18.86
2022-09-07T19:02:04.528Z,18.79
2022-09-07T19:07:27.495Z,18.63
2022-09-07T19:09:56.488Z,18.57
2022-09-07T19:12:24.664Z,18.54
2022-09-07T19:14:51.383Z,18.46
2022-09-07T19:17:18.288Z,18.40
2022-09-07T19:19:44.931Z,18.34
2022-09-07T19:22:11.766Z,18.27
2022-09-07T19:24:38.800Z,18.21
2022-09-07T19:27:07.306Z,18.13
2022-09-07T19:29:34.019Z,18.06
2022-09-07T19:32:07.848Z,18.03
2022-09-07T19:34:40.174Z,18.00
2022-09-07T19:37:08.166Z,17.97
2022-09-07T19:39:35.304Z,17.93
2022-09-07T19:42:04.405Z,17.91
2022-09-07T19:44:35.220Z,17.90
2022-09-07T19:47:03.575Z,17.87
2022-09-07T19:49:31.002Z,17.85
2022-09-07T19:51:57.722Z,17.82
2022-09-07T19:54:24.506Z,17.77
2022-09-07T19:56:51.346Z,17.73
2022-09-07T19:59:19.837Z,17.71
2022-09-07T20:01:48.473Z,17.68
2022-09-07T20:04:23.368Z,17.66
2022-09-07T20:06:51.287Z,17.64
2022-09-07T20:09:19.217Z,17.62
2022-09-07T20:11:48.010Z,17.59
2022-09-07T20:14:16.043Z,17.55
2022-09-07T20:16:42.855Z,17.52
2022-09-07T20:19:11.996Z,17.50
2022-09-07T20:21:38.650Z,17.44
2022-09-07T20:24:05.855Z,17.41
2022-09-07T20:26:32.865Z,17.37
2022-09-07T20:29:23.882Z,17.33
2022-09-07T20:31:47.447Z,17.29
2022-09-07T20:34:14.472Z,17.27
2022-09-07T20:36:42.286Z,17.25
2022-09-07T20:39:15.366Z,17.23
2022-09-07T20:41:42.675Z,17.20
2022-09-07T20:44:09.349Z,17.16
2022-09-07T20:46:36.606Z,17.12
2022-09-07T20:49:05.284Z,17.06
2022-09-07T20:51:31.964Z,17.01
2022-09-07T20:53:58.596Z,16.97
2022-09-07T20:56:27.966Z,16.93
2022-09-07T20:59:02.188Z,16.90
2022-09-07T21:01:31.385Z,16.84
2022-09-07T21:04:00.636Z,16.82
2022-09-07T21:06:31.012Z,16.79
2022-09-07T21:08:58.778Z,16.76
2022-09-07T21:11:31.351Z,16.73
2022-09-07T21:14:11.552Z,16.68
2022-09-07T21:16:39.096Z,16.63
2022-09-07T21:19:07.692Z,16.60
2022-09-07T21:21:38.747Z,16.56
2022-09-07T21:24:06.594Z,16.54
2022-09-07T21:26:33.260Z,16.51
2022-09-07T21:29:02.501Z,16.48
2022-09-07T21:31:31.574Z,16.45
2022-09-07T21:34:00.463Z,16.39
2022-09-07T21:36:28.066Z,16.33
2022-09-07T21:38:56.135Z,16.28
2022-09-07T21:41:24.295Z,16.24
2022-09-07T21:43:58.328Z,16.21
2022-09-07T21:46:26.169Z,16.19
2022-09-07T21:48:53.020Z,16.15
2022-09-07T21:51:19.696Z,16.10
2022-09-07T21:53:52.202Z,16.06
2022-09-07T21:56:19.324Z,16.01
2022-09-07T21:58:45.994Z,15.97
2022-09-07T22:01:17.882Z,15.93
2022-09-07T22:03:47.343Z,15.92
2022-09-07T22:06:14.609Z,15.89
2022-09-07T22:08:42.629Z,15.87
2022-09-07T22:11:15.036Z,15.86
2022-09-07T22:13:42.623Z,15.84
2022-09-07T22:16:10.920Z,15.83
2022-09-07T22:18:38.481Z,15.82
2022-09-07T22:21:08.286Z,15.80
2022-09-07T22:23:39.144Z,15.78
2022-09-07T22:26:07.592Z,15.76
2022-09-07T22:28:35.662Z,15.71
2022-09-07T22:31:17.221Z,15.67
2022-09-07T22:33:45.002Z,15.63
2022-09-07T22:36:26.519Z,15.58
2022-09-07T22:38:54.984Z,15.55
2022-09-07T22:41:26.210Z,15.51
2022-09-07T22:43:53.242Z,15.48
2022-09-07T22:46:21.531Z,15.46
2022-09-07T22:48:48.823Z,15.43
2022-09-07T22:51:16.928Z,15.38
2022-09-07T22:53:44.362Z,15.33
2022-09-07T22:56:14.551Z,15.30
2022-09-07T22:58:49.821Z,15.27
2022-09-07T23:01:16.874Z,15.23
2022-09-07T23:03:44.284Z,15.19
2022-09-07T23:06:22.970Z,15.18
2022-09-07T23:08:50.421Z,15.13
2022-09-07T23:11:17.841Z,15.11
2022-09-07T23:13:44.875Z,15.08
2022-09-07T23:16:12.328Z,15.06
2022-09-07T23:18:40.920Z,15.04
2022-09-07T23:21:08.730Z,14.99
2022-09-07T23:23:35.611Z,14.94
2022-09-07T23:26:03.600Z,14.90
2022-09-07T23:28:30.893Z,14.87
2022-09-07T23:30:59.987Z,14.82
2022-09-07T23:33:27.410Z,14.82
2022-09-07T23:36:02.319Z,14.81
2022-09-07T23:38:29.721Z,14.80
2022-09-07T23:40:57.329Z,14.79
2022-09-07T23:43:27.250Z,14.78
2022-09-07T23:45:54.651Z,14.76
2022-09-07T23:48:22.246Z,14.74
2022-09-07T23:50:49.380Z,14.72
2022-09-07T23:53:16.722Z,14.71
2022-09-07T23:55:43.795Z,14.70
2022-09-07T23:58:10.605Z,14.67
